sensor_id;sensor_type;location;lat;lon;timestamp;temperature;humidity
23411;DHT22;11878;51.774;7.220;2022-10-17T00:00:57;12.80;99.90
23411;DHT22;11878;51.774;7.220;2022-10-17T00:03:59;12.80;99.90
23411;DHT22;11878;51.774;7.220;2022-10-17T00:07:00;12.80;99.90
23411;DHT22;11878;51.774;7.220;2022-10-17T00:10:03;12.80;99.90
23411;DHT22;11878;51.774;7.220;2022-10-17T00:13:06;12.70;99.90
23411;DHT22;11878;51.774;7.220;2022-10-17T00:16:08;12.70;99.90
23411;DHT22;11878;51.774;7.220;2022-10-17T00:19:10;12.70;99.90
23411;DHT22;11878;51.774;7.220;2022-10-17T00:22:12;12.60;99.90
23411;DHT22;11878;51.774;7.220;2022-10-17T00:25:14;12.60;99.90
23411;DHT22;11878;51.774;7.220;2022-10-17T00:28:15;12.70;99.90
23411;DHT22;11878;51.774;7.220;2022-10-17T00:31:19;12.80;99.90
23411;DHT22;11878;51.774;7.220;2022-10-17T00:34:21;12.70;99.90
23411;DHT22;11878;51.774;7.220;2022-10-17T00:37:25;12.70;99.90
23411;DHT22;11878;51.774;7.220;2022-10-17T00:40:27;12.70;99.90
23411;DHT22;11878;51.774;7.220;2022-10-17T00:43:33;12.60;99.90
23411;DHT22;11878;51.774;7.220;2022-10-17T00:46:49;12.60;99.90
23411;DHT22;11878;51.774;7.220;2022-10-17T00:49:51;12.60;99.90
23411;DHT22;11878;51.774;7.220;2022-10-17T00:52:53;12.60;99.90
23411;DHT22;11878;51.774;7.220;2022-10-17T00:55:56;12.50;99.90
23411;DHT22;11878;51.774;7.220;2022-10-17T00:58:58;12.60;99.90
23411;DHT22;11878;51.774;7.220;2022-10-17T01:02:04;12.60;99.90
23411;DHT22;11878;51.774;7.220;2022-10-17T01:05:07;12.60;99.90
23411;DHT22;11878;51.774;7.220;2022-10-17T01:08:10;12.50;99.90
23411;DHT22;11878;51.774;7.220;2022-10-17T01:14:31;12.50;99.90
23411;DHT22;11878;51.774;7.220;2022-10-17T01:17:52;12.50;99.90
23411;DHT22;11878;51.774;7.220;2022-10-17T01:27:47;12.50;99.90
23411;DHT22;11878;51.774;7.220;2022-10-17T01:31:15;12.50;99.90
23411;DHT22;11878;51.774;7.220;2022-10-17T01:34:21;12.40;99.90
23411;DHT22;11878;51.774;7.220;2022-10-17T01:37:31;12.40;99.90
23411;DHT22;11878;51.774;7.220;2022-10-17T01:40:38;12.30;99.90
23411;DHT22;11878;51.774;7.220;2022-10-17T01:43:53;12.30;99.90
23411;DHT22;11878;51.774;7.220;2022-10-17T01:47:03;12.30;99.90
23411;DHT22;11878;51.774;7.220;2022-10-17T01:50:13;12.40;99.90
23411;DHT22;11878;51.774;7.220;2022-10-17T01:53:23;12.30;99.90
23411;DHT22;11878;51.774;7.220;2022-10-17T01:56:27;12.40;99.90
23411;DHT22;11878;51.774;7.220;2022-10-17T01:59:40;12.20;99.90
23411;DHT22;11878;51.774;7.220;2022-10-17T02:02:44;12.30;99.90
23411;DHT22;11878;51.774;7.220;2022-10-17T02:05:47;12.30;99.90
23411;DHT22;11878;51.774;7.220;2022-10-17T02:08:49;12.20;99.90
23411;DHT22;11878;51.774;7.220;2022-10-17T02:12:11;12.40;99.90
23411;DHT22;11878;51.774;7.220;2022-10-17T02:19:05;12.50;99.90
23411;DHT22;11878;51.774;7.220;2022-10-17T02:22:34;12.50;99.90
23411;DHT22;11878;51.774;7.220;2022-10-17T02:25:50;12.40;99.90
23411;DHT22;11878;51.774;7.220;2022-10-17T02:29:15;12.40;99.90
23411;DHT22;11878;51.774;7.220;2022-10-17T02:32:35;12.40;99.90
23411;DHT22;11878;51.774;7.220;2022-10-17T02:35:44;12.50;99.90
23411;DHT22;11878;51.774;7.220;2022-10-17T02:38:49;12.30;99.90
23411;DHT22;11878;51.774;7.220;2022-10-17T02:41:54;12.30;99.90
23411;DHT22;11878;51.774;7.220;2022-10-17T02:45:01;12.40;99.90
23411;DHT22;11878;51.774;7.220;2022-10-17T02:48:43;12.40;99.90
23411;DHT22;11878;51.774;7.220;2022-10-17T02:52:00;12.30;99.90
23411;DHT22;11878;51.774;7.220;2022-10-17T02:55:18;12.30;99.90
23411;DHT22;11878;51.774;7.220;2022-10-17T02:58:31;12.30;99.90
23411;DHT22;11878;51.774;7.220;2022-10-17T03:01:35;12.30;99.90
23411;DHT22;11878;51.774;7.220;2022-10-17T03:04:38;12.30;99.90
23411;DHT22;11878;51.774;7.220;2022-10-17T03:07:43;12.30;99.90
23411;DHT22;11878;51.774;7.220;2022-10-17T03:10:45;12.30;99.90
23411;DHT22;11878;51.774;7.220;2022-10-17T03:13:46;12.30;99.90
23411;DHT22;11878;51.774;7.220;2022-10-17T03:16:50;12.30;99.90
23411;DHT22;11878;51.774;7.220;2022-10-17T03:19:52;12.30;99.90
23411;DHT22;11878;51.774;7.220;2022-10-17T03:22:54;12.30;99.90
23411;DHT22;11878;51.774;7.220;2022-10-17T03:25:55;12.30;99.90
23411;DHT22;11878;51.774;7.220;2022-10-17T03:28:58;12.30;99.90
23411;DHT22;11878;51.774;7.220;2022-10-17T03:32:01;12.30;99.90
23411;DHT22;11878;51.774;7.220;2022-10-17T03:35:04;12.30;99.90
23411;DHT22;11878;51.774;7.220;2022-10-17T03:38:06;12.30;99.90
23411;DHT22;11878;51.774;7.220;2022-10-17T03:41:07;12.20;99.90
23411;DHT22;11878;51.774;7.220;2022-10-17T03:44:11;12.20;99.90
23411;DHT22;11878;51.774;7.220;2022-10-17T03:47:13;12.30;99.90
23411;DHT22;11878;51.774;7.220;2022-10-17T03:50:15;12.30;99.90
23411;DHT22;11878;51.774;7.220;2022-10-17T03:53:18;12.30;99.90
23411;DHT22;11878;51.774;7.220;2022-10-17T03:56:21;12.30;99.90
23411;DHT22;11878;51.774;7.220;2022-10-17T03:59:32;12.30;99.90
23411;DHT22;11878;51.774;7.220;2022-10-17T04:02:39;12.30;99.90
23411;DHT22;11878;51.774;7.220;2022-10-17T04:05:44;12.40;99.90
23411;DHT22;11878;51.774;7.220;2022-10-17T04:08:45;12.30;99.90
23411;DHT22;11878;51.774;7.220;2022-10-17T04:11:51;12.40;99.90
23411;DHT22;11878;51.774;7.220;2022-10-17T04:14:54;12.40;99.90
23411;DHT22;11878;51.774;7.220;2022-10-17T04:17:56;12.40;99.90
23411;DHT22;11878;51.774;7.220;2022-10-17T04:21:02;12.50;99.90
23411;DHT22;11878;51.774;7.220;2022-10-17T04:24:05;12.40;99.90
23411;DHT22;11878;51.774;7.220;2022-10-17T04:27:26;12.40;99.90
23411;DHT22;11878;51.774;7.220;2022-10-17T04:30:28;12.40;99.90
23411;DHT22;11878;51.774;7.220;2022-10-17T04:33:31;12.30;99.90
23411;DHT22;11878;51.774;7.220;2022-10-17T04:36:33;12.40;99.90
23411;DHT22;11878;51.774;7.220;2022-10-17T04:39:35;12.30;99.90
23411;DHT22;11878;51.774;7.220;2022-10-17T04:42:37;12.20;99.90
23411;DHT22;11878;51.774;7.220;2022-10-17T04:45:41;12.40;99.90
23411;DHT22;11878;51.774;7.220;2022-10-17T04:48:43;12.40;99.90
23411;DHT22;11878;51.774;7.220;2022-10-17T04:51:45;12.30;99.90
23411;DHT22;11878;51.774;7.220;2022-10-17T04:54:52;12.40;99.90
23411;DHT22;11878;51.774;7.220;2022-10-17T04:57:55;12.30;99.90
23411;DHT22;11878;51.774;7.220;2022-10-17T05:00:57;12.30;99.90
23411;DHT22;11878;51.774;7.220;2022-10-17T05:04:02;12.40;99.90
23411;DHT22;11878;51.774;7.220;2022-10-17T05:07:04;12.40;99.90
23411;DHT22;11878;51.774;7.220;2022-10-17T05:10:29;12.40;99.90
23411;DHT22;11878;51.774;7.220;2022-10-17T05:13:32;12.60;99.90
23411;DHT22;11878;51.774;7.220;2022-10-17T05:16:34;12.70;99.90
23411;DHT22;11878;51.774;7.220;2022-10-17T05:19:36;12.80;99.90
23411;DHT22;11878;51.774;7.220;2022-10-17T05:22:38;12.80;99.90
23411;DHT22;11878;51.774;7.220;2022-10-17T05:25:44;12.80;99.90
23411;DHT22;11878;51.774;7.220;2022-10-17T05:28:45;12.50;99.90
23411;DHT22;11878;51.774;7.220;2022-10-17T05:31:48;12.60;99.90
23411;DHT22;11878;51.774;7.220;2022-10-17T05:34:50;12.60;99.90
23411;DHT22;11878;51.774;7.220;2022-10-17T05:37:52;12.60;99.90
23411;DHT22;11878;51.774;7.220;2022-10-17T05:40:57;12.70;99.90
23411;DHT22;11878;51.774;7.220;2022-10-17T05:43:59;12.80;99.90
23411;DHT22;11878;51.774;7.220;2022-10-17T05:47:15;12.90;99.90
23411;DHT22;11878;51.774;7.220;2022-10-17T05:50:17;12.80;99.90
23411;DHT22;11878;51.774;7.220;2022-10-17T05:53:43;13.00;99.90
23411;DHT22;11878;51.774;7.220;2022-10-17T05:56:52;12.70;99.90
23411;DHT22;11878;51.774;7.220;2022-10-17T05:59:56;12.60;99.90
23411;DHT22;11878;51.774;7.220;2022-10-17T06:02:58;12.60;99.90
23411;DHT22;11878;51.774;7.220;2022-10-17T06:06:07;12.60;99.90
23411;DHT22;11878;51.774;7.220;2022-10-17T06:09:12;12.50;99.90
23411;DHT22;11878;51.774;7.220;2022-10-17T06:12:17;12.50;99.90
23411;DHT22;11878;51.774;7.220;2022-10-17T06:15:20;12.60;99.90
23411;DHT22;11878;51.774;7.220;2022-10-17T06:18:32;12.50;99.90
23411;DHT22;11878;51.774;7.220;2022-10-17T06:21:34;12.60;99.90
23411;DHT22;11878;51.774;7.220;2022-10-17T06:24:51;12.70;99.90
23411;DHT22;11878;51.774;7.220;2022-10-17T06:27:56;12.60;99.90
23411;DHT22;11878;51.774;7.220;2022-10-17T06:30:58;12.60;99.90
23411;DHT22;11878;51.774;7.220;2022-10-17T06:34:00;12.60;99.90
23411;DHT22;11878;51.774;7.220;2022-10-17T06:37:03;12.70;99.90
23411;DHT22;11878;51.774;7.220;2022-10-17T06:40:06;12.70;99.90
23411;DHT22;11878;51.774;7.220;2022-10-17T06:43:11;12.80;99.90
23411;DHT22;11878;51.774;7.220;2022-10-17T06:46:48;12.90;99.90
23411;DHT22;11878;51.774;7.220;2022-10-17T06:49:51;12.90;99.90
23411;DHT22;11878;51.774;7.220;2022-10-17T06:53:16;13.00;99.90
23411;DHT22;11878;51.774;7.220;2022-10-17T06:56:21;13.10;99.90
23411;DHT22;11878;51.774;7.220;2022-10-17T06:59:41;13.10;99.90
23411;DHT22;11878;51.774;7.220;2022-10-17T07:02:46;13.30;99.90
23411;DHT22;11878;51.774;7.220;2022-10-17T07:05:52;13.30;99.90
23411;DHT22;11878;51.774;7.220;2022-10-17T07:08:54;13.40;99.90
23411;DHT22;11878;51.774;7.220;2022-10-17T07:11:59;13.50;99.90
23411;DHT22;11878;51.774;7.220;2022-10-17T07:15:02;13.90;99.90
23411;DHT22;11878;51.774;7.220;2022-10-17T07:18:05;14.00;99.90
23411;DHT22;11878;51.774;7.220;2022-10-17T07:21:07;14.10;99.90
23411;DHT22;11878;51.774;7.220;2022-10-17T07:24:10;14.10;99.90
23411;DHT22;11878;51.774;7.220;2022-10-17T07:27:15;14.10;99.90
23411;DHT22;11878;51.774;7.220;2022-10-17T07:30:17;14.20;99.90
23411;DHT22;11878;51.774;7.220;2022-10-17T07:33:30;14.20;99.90
23411;DHT22;11878;51.774;7.220;2022-10-17T07:36:32;14.30;99.90
23411;DHT22;11878;51.774;7.220;2022-10-17T07:39:37;14.50;99.90
23411;DHT22;11878;51.774;7.220;2022-10-17T07:42:40;14.60;99.90
23411;DHT22;11878;51.774;7.220;2022-10-17T07:45:42;14.80;99.90
23411;DHT22;11878;51.774;7.220;2022-10-17T07:48:44;14.80;99.90
23411;DHT22;11878;51.774;7.220;2022-10-17T07:51:46;14.90;99.90
23411;DHT22;11878;51.774;7.220;2022-10-17T07:54:48;14.90;99.90
23411;DHT22;11878;51.774;7.220;2022-10-17T07:57:50;15.10;99.90
23411;DHT22;11878;51.774;7.220;2022-10-17T08:00:52;15.20;99.90
23411;DHT22;11878;51.774;7.220;2022-10-17T08:03:54;15.40;99.90
23411;DHT22;11878;51.774;7.220;2022-10-17T08:06:56;15.50;99.90
23411;DHT22;11878;51.774;7.220;2022-10-17T08:10:17;15.60;99.90
23411;DHT22;11878;51.774;7.220;2022-10-17T08:13:20;15.70;99.90
23411;DHT22;11878;51.774;7.220;2022-10-17T08:16:22;15.80;99.90
23411;DHT22;11878;51.774;7.220;2022-10-17T08:19:24;15.90;99.90
23411;DHT22;11878;51.774;7.220;2022-10-17T08:22:26;16.10;99.90
23411;DHT22;11878;51.774;7.220;2022-10-17T08:25:28;16.30;99.90
23411;DHT22;11878;51.774;7.220;2022-10-17T08:28:32;16.50;99.90
23411;DHT22;11878;51.774;7.220;2022-10-17T08:31:34;16.80;99.90
23411;DHT22;11878;51.774;7.220;2022-10-17T08:34:36;16.90;99.90
23411;DHT22;11878;51.774;7.220;2022-10-17T08:37:38;16.90;99.90
23411;DHT22;11878;51.774;7.220;2022-10-17T08:40:40;17.00;99.90
23411;DHT22;11878;51.774;7.220;2022-10-17T08:44:04;17.30;99.90
23411;DHT22;11878;51.774;7.220;2022-10-17T08:47:35;17.60;99.90
23411;DHT22;11878;51.774;7.220;2022-10-17T08:50:51;17.60;99.90
23411;DHT22;11878;51.774;7.220;2022-10-17T08:54:14;17.60;99.90
23411;DHT22;11878;51.774;7.220;2022-10-17T08:57:17;17.70;99.90
23411;DHT22;11878;51.774;7.220;2022-10-17T09:00:20;17.70;99.90
23411;DHT22;11878;51.774;7.220;2022-10-17T09:03:40;17.80;99.90
23411;DHT22;11878;51.774;7.220;2022-10-17T09:07:06;17.90;99.90
23411;DHT22;11878;51.774;7.220;2022-10-17T09:14:39;18.30;99.90
23411;DHT22;11878;51.774;7.220;2022-10-17T09:20:52;18.50;99.90
23411;DHT22;11878;51.774;7.220;2022-10-17T09:24:04;18.60;99.90
23411;DHT22;11878;51.774;7.220;2022-10-17T09:33:48;19.40;99.90
23411;DHT22;11878;51.774;7.220;2022-10-17T09:36:57;19.30;99.90
23411;DHT22;11878;51.774;7.220;2022-10-17T09:40:00;19.20;99.90
23411;DHT22;11878;51.774;7.220;2022-10-17T09:43:04;19.00;99.90
23411;DHT22;11878;51.774;7.220;2022-10-17T09:46:31;19.10;99.90
23411;DHT22;11878;51.774;7.220;2022-10-17T09:49:38;19.20;99.90
23411;DHT22;11878;51.774;7.220;2022-10-17T09:52:41;19.10;99.90
23411;DHT22;11878;51.774;7.220;2022-10-17T09:55:57;19.00;99.90
23411;DHT22;11878;51.774;7.220;2022-10-17T09:58:59;19.10;99.90
23411;DHT22;11878;51.774;7.220;2022-10-17T10:02:28;19.10;99.90
23411;DHT22;11878;51.774;7.220;2022-10-17T10:05:30;19.10;99.90
23411;DHT22;11878;51.774;7.220;2022-10-17T10:08:35;19.10;99.90
23411;DHT22;11878;51.774;7.220;2022-10-17T10:11:54;19.00;99.90
23411;DHT22;11878;51.774;7.220;2022-10-17T10:14:57;19.10;99.90
23411;DHT22;11878;51.774;7.220;2022-10-17T10:17:59;19.00;99.90
23411;DHT22;11878;51.774;7.220;2022-10-17T10:21:11;19.00;99.90
23411;DHT22;11878;51.774;7.220;2022-10-17T10:24:14;18.90;99.90
23411;DHT22;11878;51.774;7.220;2022-10-17T10:27:17;19.00;99.90
23411;DHT22;11878;51.774;7.220;2022-10-17T10:30:23;18.80;99.90
23411;DHT22;11878;51.774;7.220;2022-10-17T10:33:27;18.80;99.90
23411;DHT22;11878;51.774;7.220;2022-10-17T10:36:44;18.90;99.90
23411;DHT22;11878;51.774;7.220;2022-10-17T10:39:50;18.90;99.90
23411;DHT22;11878;51.774;7.220;2022-10-17T10:42:55;18.80;99.90
23411;DHT22;11878;51.774;7.220;2022-10-17T10:46:21;18.80;99.90
23411;DHT22;11878;51.774;7.220;2022-10-17T10:49:30;18.80;99.90
23411;DHT22;11878;51.774;7.220;2022-10-17T10:52:40;18.80;99.90
23411;DHT22;11878;51.774;7.220;2022-10-17T10:55:50;18.80;99.90
23411;DHT22;11878;51.774;7.220;2022-10-17T10:59:02;18.80;99.90
23411;DHT22;11878;51.774;7.220;2022-10-17T11:02:28;18.80;99.90
23411;DHT22;11878;51.774;7.220;2022-10-17T11:05:54;18.90;99.90
23411;DHT22;11878;51.774;7.220;2022-10-17T11:15:26;19.10;99.90
23411;DHT22;11878;51.774;7.220;2022-10-17T11:21:46;19.00;99.90
23411;DHT22;11878;51.774;7.220;2022-10-17T11:24:56;18.90;99.90
23411;DHT22;11878;51.774;7.220;2022-10-17T11:28:10;18.90;99.90
23411;DHT22;11878;51.774;7.220;2022-10-17T11:31:12;18.80;99.90
23411;DHT22;11878;51.774;7.220;2022-10-17T11:34:25;18.80;99.90
23411;DHT22;11878;51.774;7.220;2022-10-17T11:37:33;18.70;99.90
23411;DHT22;11878;51.774;7.220;2022-10-17T11:40:38;18.60;99.90
23411;DHT22;11878;51.774;7.220;2022-10-17T11:43:50;18.50;99.90
23411;DHT22;11878;51.774;7.220;2022-10-17T11:46:57;18.50;99.90
23411;DHT22;11878;51.774;7.220;2022-10-17T11:50:26;18.40;99.90
23411;DHT22;11878;51.774;7.220;2022-10-17T12:10:36;18.00;99.90
23411;DHT22;11878;51.774;7.220;2022-10-17T12:16:43;18.10;99.90
23411;DHT22;11878;51.774;7.220;2022-10-17T12:19:45;18.30;99.90
23411;DHT22;11878;51.774;7.220;2022-10-17T12:28:58;18.30;99.90
23411;DHT22;11878;51.774;7.220;2022-10-17T12:32:11;18.30;99.90
23411;DHT22;11878;51.774;7.220;2022-10-17T12:35:19;18.20;99.90
23411;DHT22;11878;51.774;7.220;2022-10-17T12:38:24;18.20;99.90
23411;DHT22;11878;51.774;7.220;2022-10-17T12:44:40;18.10;99.90
23411;DHT22;11878;51.774;7.220;2022-10-17T12:47:42;18.00;99.90
23411;DHT22;11878;51.774;7.220;2022-10-17T12:51:17;17.90;99.90
23411;DHT22;11878;51.774;7.220;2022-10-17T12:54:40;17.90;99.90
23411;DHT22;11878;51.774;7.220;2022-10-17T12:58:09;17.90;99.90
23411;DHT22;11878;51.774;7.220;2022-10-17T13:01:30;17.90;99.90
23411;DHT22;11878;51.774;7.220;2022-10-17T13:04:35;17.90;99.90
23411;DHT22;11878;51.774;7.220;2022-10-17T13:07:40;17.90;99.90
23411;DHT22;11878;51.774;7.220;2022-10-17T13:10:45;18.00;99.90
23411;DHT22;11878;51.774;7.220;2022-10-17T13:13:52;18.00;99.90
23411;DHT22;11878;51.774;7.220;2022-10-17T13:16:58;18.00;99.90
23411;DHT22;11878;51.774;7.220;2022-10-17T13:20:00;18.00;99.90
23411;DHT22;11878;51.774;7.220;2022-10-17T13:23:02;18.00;99.90
23411;DHT22;11878;51.774;7.220;2022-10-17T13:26:14;18.20;99.90
23411;DHT22;11878;51.774;7.220;2022-10-17T13:29:16;18.20;99.90
23411;DHT22;11878;51.774;7.220;2022-10-17T13:32:19;18.20;99.90
23411;DHT22;11878;51.774;7.220;2022-10-17T13:38:45;18.20;99.90
23411;DHT22;11878;51.774;7.220;2022-10-17T13:41:48;18.10;99.90
23411;DHT22;11878;51.774;7.220;2022-10-17T13:44:50;18.10;99.90
23411;DHT22;11878;51.774;7.220;2022-10-17T13:47:52;18.10;99.90
23411;DHT22;11878;51.774;7.220;2022-10-17T13:50:56;18.10;99.90
23411;DHT22;11878;51.774;7.220;2022-10-17T13:57:36;18.20;99.90
23411;DHT22;11878;51.774;7.220;2022-10-17T14:00:38;18.20;99.90
23411;DHT22;11878;51.774;7.220;2022-10-17T14:03:41;18.30;99.90
23411;DHT22;11878;51.774;7.220;2022-10-17T14:06:50;18.40;99.90
23411;DHT22;11878;51.774;7.220;2022-10-17T14:09:53;18.10;99.90
23411;DHT22;11878;51.774;7.220;2022-10-17T14:12:55;18.30;99.90
23411;DHT22;11878;51.774;7.220;2022-10-17T14:15:59;18.20;99.90
23411;DHT22;11878;51.774;7.220;2022-10-17T14:19:03;18.20;99.90
23411;DHT22;11878;51.774;7.220;2022-10-17T14:28:39;18.10;99.90
23411;DHT22;11878;51.774;7.220;2022-10-17T14:31:41;18.10;99.90
23411;DHT22;11878;51.774;7.220;2022-10-17T14:34:43;18.20;99.90
23411;DHT22;11878;51.774;7.220;2022-10-17T14:37:47;18.20;99.90
23411;DHT22;11878;51.774;7.220;2022-10-17T14:40:51;18.30;99.90
23411;DHT22;11878;51.774;7.220;2022-10-17T14:43:59;18.30;99.90
23411;DHT22;11878;51.774;7.220;2022-10-17T14:47:04;18.30;99.90
23411;DHT22;11878;51.774;7.220;2022-10-17T14:50:29;18.30;99.90
23411;DHT22;11878;51.774;7.220;2022-10-17T14:53:32;18.20;99.90
23411;DHT22;11878;51.774;7.220;2022-10-17T14:56:41;18.20;99.90
23411;DHT22;11878;51.774;7.220;2022-10-17T14:59:43;18.20;99.90
23411;DHT22;11878;51.774;7.220;2022-10-17T15:03:00;18.20;99.90
23411;DHT22;11878;51.774;7.220;2022-10-17T15:06:19;18.30;99.90
23411;DHT22;11878;51.774;7.220;2022-10-17T15:09:20;18.10;99.90
23411;DHT22;11878;51.774;7.220;2022-10-17T15:12:24;18.10;99.90
23411;DHT22;11878;51.774;7.220;2022-10-17T15:15:27;18.10;99.90
23411;DHT22;11878;51.774;7.220;2022-10-17T15:18:29;18.10;99.90
23411;DHT22;11878;51.774;7.220;2022-10-17T15:21:32;18.00;99.90
23411;DHT22;11878;51.774;7.220;2022-10-17T15:24:44;18.10;99.90
23411;DHT22;11878;51.774;7.220;2022-10-17T15:27:49;18.00;99.90
23411;DHT22;11878;51.774;7.220;2022-10-17T15:30:50;18.10;99.90
23411;DHT22;11878;51.774;7.220;2022-10-17T15:33:52;18.10;99.90
23411;DHT22;11878;51.774;7.220;2022-10-17T15:36:54;18.10;99.90
23411;DHT22;11878;51.774;7.220;2022-10-17T15:39:56;18.00;99.90
23411;DHT22;11878;51.774;7.220;2022-10-17T15:42:57;18.00;99.90
23411;DHT22;11878;51.774;7.220;2022-10-17T15:45:59;18.00;99.90
23411;DHT22;11878;51.774;7.220;2022-10-17T15:49:04;18.00;99.90
23411;DHT22;11878;51.774;7.220;2022-10-17T15:52:08;17.90;99.90
23411;DHT22;11878;51.774;7.220;2022-10-17T15:55:10;17.90;99.90
23411;DHT22;11878;51.774;7.220;2022-10-17T15:58:14;17.90;99.90
23411;DHT22;11878;51.774;7.220;2022-10-17T16:01:28;17.80;99.90
23411;DHT22;11878;51.774;7.220;2022-10-17T16:04:31;17.80;99.90
23411;DHT22;11878;51.774;7.220;2022-10-17T16:07:33;17.80;99.90
23411;DHT22;11878;51.774;7.220;2022-10-17T16:10:36;17.70;99.90
23411;DHT22;11878;51.774;7.220;2022-10-17T16:13:39;17.70;99.90
23411;DHT22;11878;51.774;7.220;2022-10-17T16:16:43;17.60;99.90
23411;DHT22;11878;51.774;7.220;2022-10-17T16:19:45;17.50;99.90
23411;DHT22;11878;51.774;7.220;2022-10-17T16:22:47;17.60;99.90
23411;DHT22;11878;51.774;7.220;2022-10-17T16:25:49;17.50;99.90
23411;DHT22;11878;51.774;7.220;2022-10-17T16:28:52;17.40;99.90
23411;DHT22;11878;51.774;7.220;2022-10-17T16:31:55;17.50;99.90
23411;DHT22;11878;51.774;7.220;2022-10-17T16:34:57;17.40;99.90
23411;DHT22;11878;51.774;7.220;2022-10-17T16:38:00;17.40;99.90
23411;DHT22;11878;51.774;7.220;2022-10-17T16:41:02;17.30;99.90
23411;DHT22;11878;51.774;7.220;2022-10-17T16:44:07;17.30;99.90
23411;DHT22;11878;51.774;7.220;2022-10-17T16:47:09;17.20;99.90
23411;DHT22;11878;51.774;7.220;2022-10-17T16:50:12;17.20;99.90
23411;DHT22;11878;51.774;7.220;2022-10-17T16:53:13;17.20;99.90
23411;DHT22;11878;51.774;7.220;2022-10-17T16:56:17;17.10;99.90
23411;DHT22;11878;51.774;7.220;2022-10-17T16:59:19;17.00;99.90
23411;DHT22;11878;51.774;7.220;2022-10-17T17:02:21;17.00;99.90
23411;DHT22;11878;51.774;7.220;2022-10-17T17:05:23;17.00;99.90
23411;DHT22;11878;51.774;7.220;2022-10-17T17:08:24;16.90;99.90
23411;DHT22;11878;51.774;7.220;2022-10-17T17:11:27;16.80;99.90
23411;DHT22;11878;51.774;7.220;2022-10-17T17:14:29;16.90;99.90
23411;DHT22;11878;51.774;7.220;2022-10-17T17:17:31;16.80;99.90
23411;DHT22;11878;51.774;7.220;2022-10-17T17:20:50;16.80;99.90
23411;DHT22;11878;51.774;7.220;2022-10-17T17:23:53;16.70;99.90
23411;DHT22;11878;51.774;7.220;2022-10-17T17:26:57;16.80;99.90
23411;DHT22;11878;51.774;7.220;2022-10-17T17:29:59;16.80;99.90
23411;DHT22;11878;51.774;7.220;2022-10-17T17:33:01;16.80;99.90
23411;DHT22;11878;51.774;7.220;2022-10-17T17:36:03;16.60;99.90
23411;DHT22;11878;51.774;7.220;2022-10-17T17:39:09;16.60;99.90
23411;DHT22;11878;51.774;7.220;2022-10-17T17:42:11;16.50;99.90
23411;DHT22;11878;51.774;7.220;2022-10-17T17:45:13;16.50;99.90
23411;DHT22;11878;51.774;7.220;2022-10-17T17:48:15;16.40;99.90
23411;DHT22;11878;51.774;7.220;2022-10-17T17:51:20;16.30;99.90
23411;DHT22;11878;51.774;7.220;2022-10-17T17:54:28;16.30;99.90
23411;DHT22;11878;51.774;7.220;2022-10-17T17:57:30;16.30;99.90
23411;DHT22;11878;51.774;7.220;2022-10-17T18:00:32;16.20;99.90
23411;DHT22;11878;51.774;7.220;2022-10-17T18:03:37;16.20;99.90
23411;DHT22;11878;51.774;7.220;2022-10-17T18:06:39;16.20;99.90
23411;DHT22;11878;51.774;7.220;2022-10-17T18:09:40;16.20;99.90
23411;DHT22;11878;51.774;7.220;2022-10-17T18:12:42;16.20;99.90
23411;DHT22;11878;51.774;7.220;2022-10-17T18:15:44;16.10;99.90
23411;DHT22;11878;51.774;7.220;2022-10-17T18:18:46;16.40;99.90
23411;DHT22;11878;51.774;7.220;2022-10-17T18:21:48;16.40;99.90
23411;DHT22;11878;51.774;7.220;2022-10-17T18:24:50;16.50;99.90
23411;DHT22;11878;51.774;7.220;2022-10-17T18:27:52;16.40;99.90
23411;DHT22;11878;51.774;7.220;2022-10-17T18:30:54;16.50;99.90
23411;DHT22;11878;51.774;7.220;2022-10-17T18:33:57;16.50;99.90
23411;DHT22;11878;51.774;7.220;2022-10-17T18:37:00;16.50;99.90
23411;DHT22;11878;51.774;7.220;2022-10-17T18:40:03;16.50;99.90
23411;DHT22;11878;51.774;7.220;2022-10-17T18:43:05;16.50;99.90
23411;DHT22;11878;51.774;7.220;2022-10-17T18:46:12;16.40;99.90
23411;DHT22;11878;51.774;7.220;2022-10-17T18:49:17;16.40;99.90
23411;DHT22;11878;51.774;7.220;2022-10-17T18:52:19;16.40;99.90
23411;DHT22;11878;51.774;7.220;2022-10-17T18:55:21;16.40;99.90
23411;DHT22;11878;51.774;7.220;2022-10-17T18:58:22;16.40;99.90
23411;DHT22;11878;51.774;7.220;2022-10-17T19:01:26;16.40;99.90
23411;DHT22;11878;51.774;7.220;2022-10-17T19:04:28;16.40;99.90
23411;DHT22;11878;51.774;7.220;2022-10-17T19:07:29;16.40;99.90
23411;DHT22;11878;51.774;7.220;2022-10-17T19:10:32;16.40;99.90
23411;DHT22;11878;51.774;7.220;2022-10-17T19:13:35;16.40;99.90
23411;DHT22;11878;51.774;7.220;2022-10-17T19:16:39;16.30;99.90
23411;DHT22;11878;51.774;7.220;2022-10-17T19:19:41;16.30;99.90
23411;DHT22;11878;51.774;7.220;2022-10-17T19:22:43;16.20;99.90
23411;DHT22;11878;51.774;7.220;2022-10-17T19:25:44;16.10;99.90
23411;DHT22;11878;51.774;7.220;2022-10-17T19:28:46;16.10;99.90
23411;DHT22;11878;51.774;7.220;2022-10-17T19:31:48;16.20;99.90
23411;DHT22;11878;51.774;7.220;2022-10-17T19:34:50;16.20;99.90
23411;DHT22;11878;51.774;7.220;2022-10-17T19:37:52;16.20;99.90
23411;DHT22;11878;51.774;7.220;2022-10-17T19:40:54;16.10;99.90
23411;DHT22;11878;51.774;7.220;2022-10-17T19:43:56;16.10;99.90
23411;DHT22;11878;51.774;7.220;2022-10-17T19:46:58;16.10;99.90
23411;DHT22;11878;51.774;7.220;2022-10-17T19:49:59;15.90;99.90
23411;DHT22;11878;51.774;7.220;2022-10-17T19:53:01;16.00;99.90
23411;DHT22;11878;51.774;7.220;2022-10-17T19:56:04;15.80;99.90
23411;DHT22;11878;51.774;7.220;2022-10-17T19:59:06;16.30;99.90
23411;DHT22;11878;51.774;7.220;2022-10-17T20:02:11;15.90;99.90
23411;DHT22;11878;51.774;7.220;2022-10-17T20:05:13;15.90;99.90
23411;DHT22;11878;51.774;7.220;2022-10-17T20:08:20;15.90;99.90
23411;DHT22;11878;51.774;7.220;2022-10-17T20:11:23;15.90;99.90
23411;DHT22;11878;51.774;7.220;2022-10-17T20:14:25;15.80;99.90
23411;DHT22;11878;51.774;7.220;2022-10-17T20:17:27;15.80;99.90
23411;DHT22;11878;51.774;7.220;2022-10-17T20:20:29;15.70;99.90
23411;DHT22;11878;51.774;7.220;2022-10-17T20:23:31;15.80;99.90
23411;DHT22;11878;51.774;7.220;2022-10-17T20:26:33;15.80;99.90
23411;DHT22;11878;51.774;7.220;2022-10-17T20:29:40;15.70;99.90
23411;DHT22;11878;51.774;7.220;2022-10-17T20:32:41;15.70;99.90
23411;DHT22;11878;51.774;7.220;2022-10-17T20:35:43;15.70;99.90
23411;DHT22;11878;51.774;7.220;2022-10-17T20:38:54;15.80;99.90
23411;DHT22;11878;51.774;7.220;2022-10-17T20:41:56;15.80;99.90
23411;DHT22;11878;51.774;7.220;2022-10-17T20:44:58;16.00;99.90
23411;DHT22;11878;51.774;7.220;2022-10-17T20:47:59;16.00;99.90
23411;DHT22;11878;51.774;7.220;2022-10-17T20:51:08;15.90;99.90
23411;DHT22;11878;51.774;7.220;2022-10-17T20:54:11;15.90;99.90